createdAt,value
2023-03-15T00:02:37.630Z,11.65
2023-03-15T00:07:40.348Z,10.50
2023-03-15T00:12:43.089Z,9.48
2023-03-15T00:17:45.371Z,8.32
2023-03-15T00:22:47.664Z,8.60
2023-03-15T00:27:49.811Z,8.70
2023-03-15T00:32:56.514Z,8.60
2023-03-15T00:37:58.714Z,9.30
2023-03-15T00:43:00.798Z,7.63
2023-03-15T00:48:03.008Z,7.45
2023-03-15T00:53:05.192Z,6.97
2023-03-15T00:58:07.276Z,6.50
2023-03-15T01:03:10.307Z,8.20
2023-03-15T01:08:12.454Z,6.35
2023-03-15T01:13:14.593Z,8.65
2023-03-15T01:18:17.288Z,10.50
2023-03-15T01:23:19.474Z,9.25
2023-03-15T01:28:22.232Z,5.97
2023-03-15T01:33:24.586Z,6.05
2023-03-15T01:38:26.812Z,6.53
2023-03-15T01:43:32.195Z,7.15
2023-03-15T01:49:10.421Z,7.30
2023-03-15T01:54:20.172Z,7.20
2023-03-15T01:59:28.144Z,8.23
2023-03-15T02:04:36.064Z,7.90
2023-03-15T02:10:07.712Z,8.52
2023-03-15T02:15:11.913Z,8.45
2023-03-15T02:20:38.381Z,8.65
2023-03-15T02:25:53.029Z,9.02
2023-03-15T02:30:55.862Z,10.27
2023-03-15T02:36:15.128Z,10.10
2023-03-15T02:41:28.725Z,10.48
2023-03-15T02:46:31.193Z,13.85
2023-03-15T02:51:34.640Z,12.38
2023-03-15T02:56:36.943Z,12.85
2023-03-15T03:01:39.582Z,12.98
2023-03-15T03:06:44.266Z,11.35
2023-03-15T03:11:46.486Z,12.30
2023-03-15T03:16:48.719Z,11.55
2023-03-15T03:21:53.070Z,9.45
2023-03-15T03:26:58.967Z,8.73
2023-03-15T03:32:01.269Z,9.05
2023-03-15T03:37:03.609Z,7.53
2023-03-15T03:42:05.937Z,8.80
2023-03-15T03:47:08.556Z,7.88
2023-03-15T03:52:10.834Z,8.55
2023-03-15T03:57:12.970Z,7.32
2023-03-15T04:02:15.250Z,6.82
2023-03-15T04:07:17.544Z,7.15
2023-03-15T04:12:20.078Z,7.40
2023-03-15T04:17:22.224Z,7.75
2023-03-15T04:22:24.351Z,7.25
2023-03-15T04:27:26.534Z,7.03
2023-03-15T04:32:28.634Z,8.18
2023-03-15T04:37:32.693Z,7.40
2023-03-15T04:42:34.840Z,7.45
2023-03-15T04:47:37.322Z,6.20
2023-03-15T04:52:39.817Z,6.35
2023-03-15T04:57:41.996Z,6.03
2023-03-15T05:02:44.928Z,9.18
2023-03-15T05:07:47.062Z,10.20
2023-03-15T05:12:49.318Z,9.65
2023-03-15T05:17:55.358Z,9.95
2023-03-15T05:22:57.983Z,10.57
2023-03-15T05:28:00.186Z,10.95
2023-03-15T05:33:05.345Z,10.02
2023-03-15T05:38:07.466Z,12.75
2023-03-15T05:43:09.750Z,10.85
2023-03-15T05:48:12.254Z,10.10
2023-03-15T05:53:14.504Z,10.13
2023-03-15T05:58:16.675Z,9.57
2023-03-15T06:03:19.182Z,9.25
2023-03-15T06:08:21.277Z,11.07
2023-03-15T06:13:23.446Z,11.43
2023-03-15T06:18:25.681Z,10.43
2023-03-15T06:23:27.802Z,10.95
2023-03-15T06:28:29.942Z,10.60
2023-03-15T06:33:32.848Z,11.38
2023-03-15T06:38:35.055Z,11.60
2023-03-15T06:43:37.186Z,12.55
2023-03-15T06:48:39.562Z,10.95
2023-03-15T06:53:41.843Z,11.13
2023-03-15T06:58:44.305Z,10.93
2023-03-15T07:03:46.860Z,9.35
2023-03-15T07:08:49.003Z,9.32
2023-03-15T07:13:51.738Z,9.93
2023-03-15T07:18:55.942Z,11.35
2023-03-15T07:23:58.179Z,12.15
2023-03-15T07:29:00.710Z,13.20
2023-03-15T07:34:03.116Z,12.95
2023-03-15T07:39:05.301Z,13.15
2023-03-15T07:44:07.587Z,13.85
2023-03-15T07:49:09.690Z,15.02
2023-03-15T07:54:12.665Z,14.68
2023-03-15T07:59:15.889Z,14.65
2023-03-15T08:04:18.017Z,13.45
2023-03-15T08:09:20.105Z,13.88
2023-03-15T08:14:22.288Z,13.15
2023-03-15T08:19:24.576Z,13.73
2023-03-15T08:24:27.746Z,13.85
2023-03-15T08:29:29.939Z,13.00
2023-03-15T08:34:35.047Z,13.10
2023-03-15T08:39:38.009Z,11.68
2023-03-15T08:44:40.076Z,14.93
2023-03-15T08:49:42.230Z,14.32
2023-03-15T08:54:44.625Z,14.25
2023-03-15T08:59:46.801Z,11.88
2023-03-15T09:04:48.980Z,11.95
2023-03-15T09:09:54.684Z,11.00
2023-03-15T09:14:56.844Z,9.95
2023-03-15T09:19:59.030Z,10.65
2023-03-15T09:25:01.195Z,9.43
2023-03-15T09:30:04.192Z,8.68
2023-03-15T09:35:10.741Z,7.65
2023-03-15T09:40:30.632Z,8.48
2023-03-15T09:45:55.928Z,7.25
2023-03-15T09:51:05.528Z,6.50
2023-03-15T09:56:56.835Z,6.82
2023-03-15T10:02:02.728Z,5.20
2023-03-15T10:07:10.965Z,5.82
2023-03-15T10:12:23.504Z,7.05
2023-03-15T10:18:00.314Z,7.60
2023-03-15T10:23:29.817Z,6.80
2023-03-15T10:28:37.908Z,8.35
2023-03-15T10:33:44.596Z,8.13
2023-03-15T10:38:48.737Z,9.52
2023-03-15T10:44:00.737Z,8.43
2023-03-15T10:49:16.488Z,6.95
2023-03-15T10:54:21.652Z,7.07
2023-03-15T10:59:26.492Z,6.95
2023-03-15T11:04:28.983Z,6.93
2023-03-15T11:09:42.981Z,6.22
2023-03-15T11:14:50.418Z,6.18
2023-03-15T11:20:14.403Z,5.97
2023-03-15T11:25:19.484Z,7.20
2023-03-15T11:30:29.473Z,5.13
2023-03-15T11:35:48.512Z,5.88
2023-03-15T11:40:57.269Z,6.25
2023-03-15T11:46:05.093Z,5.80
2023-03-15T11:51:08.935Z,4.93
2023-03-15T11:56:24.392Z,5.32
2023-03-15T12:01:27.184Z,5.03
2023-03-15T12:06:38.362Z,3.97
2023-03-15T12:11:43.184Z,3.95
2023-03-15T12:16:46.884Z,4.43
2023-03-15T12:21:58.599Z,4.32
2023-03-15T12:27:19.399Z,4.13
2023-03-15T12:32:21.935Z,3.45
2023-03-15T12:37:44.999Z,3.85
2023-03-15T12:42:47.129Z,4.03
2023-03-15T12:47:51.932Z,4.35
2023-03-15T12:53:00.889Z,4.95
2023-03-15T12:58:05.079Z,5.53
2023-03-15T13:03:12.484Z,4.50
2023-03-15T13:08:22.427Z,5.45
2023-03-15T13:13:48.697Z,3.72
2023-03-15T13:19:05.681Z,3.00
2023-03-15T13:24:19.993Z,2.92
2023-03-15T13:29:31.239Z,3.72
2023-03-15T13:34:34.598Z,2.92
2023-03-15T13:39:36.784Z,2.67
2023-03-15T13:44:39.275Z,2.95
2023-03-15T13:49:41.396Z,2.95
2023-03-15T13:54:44.828Z,3.17
2023-03-15T13:59:54.797Z,3.70
2023-03-15T14:05:00.183Z,2.63
2023-03-15T14:10:29.658Z,3.30
2023-03-15T14:15:43.380Z,3.07
2023-03-15T14:20:48.252Z,3.05
2023-03-15T14:26:16.406Z,3.75
2023-03-15T14:31:25.973Z,4.22
2023-03-15T14:36:42.151Z,3.22
2023-03-15T14:41:45.234Z,4.40
2023-03-15T14:46:48.995Z,4.30
2023-03-15T14:51:57.672Z,4.00
2023-03-15T14:57:00.289Z,4.30
2023-03-15T15:02:03.321Z,3.45
2023-03-15T15:07:06.209Z,3.90
2023-03-15T15:12:11.566Z,5.05
2023-03-15T15:17:13.721Z,4.45
2023-03-15T15:22:17.321Z,5.53
2023-03-15T15:27:19.389Z,4.70
2023-03-15T15:32:21.522Z,4.10
2023-03-15T15:37:23.656Z,4.57
2023-03-15T15:42:26.110Z,4.70
2023-03-15T15:47:28.178Z,4.22
2023-03-15T15:52:30.459Z,6.25
2023-03-15T15:57:32.851Z,4.03
2023-03-15T16:02:36.049Z,5.15
2023-03-15T16:07:38.676Z,5.15
2023-03-15T16:12:40.753Z,4.93
2023-03-15T16:17:43.324Z,34.95
2023-03-15T16:22:51.994Z,9.35
2023-03-15T16:27:55.835Z,8.60
2023-03-15T16:32:59.338Z,8.73
2023-03-15T16:38:02.218Z,10.65
2023-03-15T16:43:06.602Z,9.48
2023-03-15T16:48:17.353Z,12.80
2023-03-15T16:53:21.573Z,10.93
2023-03-15T16:58:33.881Z,12.00
2023-03-15T17:03:36.585Z,11.80
2023-03-15T17:08:51.353Z,13.75
2023-03-15T17:13:53.773Z,16.48
2023-03-15T17:18:56.242Z,14.80
2023-03-15T17:23:58.685Z,14.52
2023-03-15T17:29:03.239Z,14.82
2023-03-15T17:34:05.456Z,15.80
2023-03-15T17:39:10.982Z,14.48
2023-03-15T17:44:13.217Z,16.48
2023-03-15T17:49:16.670Z,20.25
2023-03-15T17:54:21.045Z,22.95
2023-03-15T17:59:23.297Z,21.85
2023-03-15T18:04:25.451Z,18.20
2023-03-15T18:09:27.641Z,21.98
2023-03-15T18:14:31.314Z,19.52
2023-03-15T18:19:33.764Z,15.40
2023-03-15T18:24:36.268Z,13.57
2023-03-15T18:29:38.622Z,12.13
2023-03-15T18:34:41.522Z,12.68
2023-03-15T18:39:43.651Z,14.18
2023-03-15T18:44:45.887Z,11.27
2023-03-15T18:49:49.563Z,10.43
2023-03-15T18:54:53.821Z,9.32
2023-03-15T18:59:56.224Z,10.73
2023-03-15T19:04:59.653Z,15.70
2023-03-15T19:10:02.885Z,14.32
2023-03-15T19:15:06.016Z,14.82
2023-03-15T19:20:12.373Z,18.63
2023-03-15T19:25:14.778Z,22.13
2023-03-15T19:30:21.240Z,19.52
2023-03-15T19:35:23.949Z,18.58
2023-03-15T19:40:26.411Z,15.43
2023-03-15T19:45:28.585Z,15.05
2023-03-15T19:50:32.853Z,22.23
2023-03-15T19:55:36.266Z,11.57
2023-03-15T20:00:38.525Z,11.95
2023-03-15T20:05:41.698Z,12.02
2023-03-15T20:10:44.719Z,12.13
2023-03-15T20:15:47.816Z,13.25
2023-03-15T20:20:51.735Z,13.77
2023-03-15T20:26:04.638Z,13.20
2023-03-15T20:31:08.863Z,13.02
2023-03-15T20:36:11.721Z,14.63
2023-03-15T20:41:14.676Z,15.27
2023-03-15T20:46:19.250Z,15.35
2023-03-15T20:51:21.653Z,15.23
2023-03-15T20:56:24.144Z,15.40
2023-03-15T21:01:26.647Z,15.73
2023-03-15T21:06:29.681Z,16.02
2023-03-15T21:11:32.693Z,16.42
2023-03-15T21:16:35.764Z,19.17
2023-03-15T21:21:38.607Z,18.77
2023-03-15T21:26:44.314Z,20.88
2023-03-15T21:31:46.571Z,19.85
2023-03-15T21:36:49.670Z,19.63
2023-03-15T21:41:52.569Z,17.75
2023-03-15T21:46:54.694Z,16.00
2023-03-15T21:51:57.112Z,18.02
2023-03-15T21:56:59.325Z,18.92
2023-03-15T22:02:02.938Z,17.75
2023-03-15T22:07:05.023Z,17.52
2023-03-15T22:50:44.085Z,16.73
2023-03-15T22:55:46.195Z,17.50
2023-03-15T23:00:48.997Z,18.90
2023-03-15T23:05:51.198Z,19.02
2023-03-15T23:10:53.406Z,20.35
2023-03-15T23:15:55.718Z,19.98
2023-03-15T23:21:07.593Z,19.48
2023-03-15T23:26:11.435Z,18.73
2023-03-15T23:31:13.727Z,19.17
2023-03-15T23:36:15.972Z,18.85
2023-03-15T23:41:18.542Z,17.73
2023-03-15T23:46:20.741Z,16.65
2023-03-15T23:51:23.013Z,17.70
2023-03-15T23:56:25.374Z,18.70
